sensor_id;sensor_type;location;lat;lon;timestamp;pressure;altitude;pressure_sealevel;temperature;humidity
829;BME280;396;52.558;13.188;2023-07-08T00:00:10;101588.91;;;16.58;94.43
829;BME280;396;52.558;13.188;2023-07-08T00:02:37;101592.41;;;16.50;94.74
829;BME280;396;52.558;13.188;2023-07-08T00:05:04;101595.28;;;16.45;94.47
829;BME280;396;52.558;13.188;2023-07-08T00:07:32;101595.47;;;16.49;94.59
829;BME280;396;52.558;13.188;2023-07-08T00:09:59;101589.19;;;16.48;94.53
829;BME280;396;52.558;13.188;2023-07-08T00:12:25;101590.00;;;16.49;94.14
829;BME280;396;52.558;13.188;2023-07-08T00:14:52;101594.16;;;16.46;94.22
829;BME280;396;52.558;13.188;2023-07-08T00:17:19;101590.78;;;16.40;95.04
829;BME280;396;52.558;13.188;2023-07-08T00:19:45;101581.59;;;16.36;95.14
829;BME280;396;52.558;13.188;2023-07-08T00:22:13;101583.19;;;16.37;94.97
829;BME280;396;52.558;13.188;2023-07-08T00:24:41;101582.53;;;16.32;95.40
829;BME280;396;52.558;13.188;2023-07-08T00:27:10;101587.81;;;16.28;95.16
829;BME280;396;52.558;13.188;2023-07-08T00:29:38;101586.22;;;16.27;95.53
829;BME280;396;52.558;13.188;2023-07-08T00:32:10;101575.59;;;16.26;94.89
829;BME280;396;52.558;13.188;2023-07-08T00:34:37;101576.22;;;16.23;95.19
829;BME280;396;52.558;13.188;2023-07-08T00:37:04;101583.09;;;16.20;95.25
829;BME280;396;52.558;13.188;2023-07-08T00:39:30;101576.53;;;16.21;94.90
829;BME280;396;52.558;13.188;2023-07-08T00:41:58;101585.38;;;16.18;95.11
829;BME280;396;52.558;13.188;2023-07-08T00:44:26;101583.38;;;16.10;95.88
829;BME280;396;52.558;13.188;2023-07-08T00:46:58;101590.47;;;16.11;96.08
829;BME280;396;52.558;13.188;2023-07-08T00:49:39;101592.38;;;16.10;95.45
829;BME280;396;52.558;13.188;2023-07-08T00:52:22;101595.78;;;16.07;96.27
829;BME280;396;52.558;13.188;2023-07-08T00:54:50;101582.91;;;16.08;95.71
829;BME280;396;52.558;13.188;2023-07-08T00:57:18;101586.88;;;16.02;96.35
829;BME280;396;52.558;13.188;2023-07-08T00:59:51;101588.81;;;16.01;95.82
829;BME280;396;52.558;13.188;2023-07-08T01:02:21;101589.44;;;15.98;96.19
829;BME280;396;52.558;13.188;2023-07-08T01:04:51;101592.94;;;15.90;96.61
829;BME280;396;52.558;13.188;2023-07-08T01:07:19;101586.16;;;15.87;96.97
829;BME280;396;52.558;13.188;2023-07-08T01:09:50;101590.00;;;15.86;96.84
829;BME280;396;52.558;13.188;2023-07-08T01:12:23;101585.34;;;15.87;97.16
829;BME280;396;52.558;13.188;2023-07-08T01:14:52;101585.16;;;15.83;96.96
829;BME280;396;52.558;13.188;2023-07-08T01:17:20;101580.44;;;15.75;96.85
829;BME280;396;52.558;13.188;2023-07-08T01:19:47;101578.84;;;15.74;97.10
829;BME280;396;52.558;13.188;2023-07-08T01:22:18;101580.09;;;15.68;97.76
829;BME280;396;52.558;13.188;2023-07-08T01:24:45;101570.47;;;15.71;97.76
829;BME280;396;52.558;13.188;2023-07-08T01:27:14;101577.84;;;15.70;97.69
829;BME280;396;52.558;13.188;2023-07-08T01:29:41;101575.13;;;15.70;97.39
829;BME280;396;52.558;13.188;2023-07-08T01:32:10;101578.66;;;15.71;97.26
829;BME280;396;52.558;13.188;2023-07-08T01:34:39;101569.16;;;15.68;97.44
829;BME280;396;52.558;13.188;2023-07-08T01:37:06;101569.56;;;15.61;97.98
829;BME280;396;52.558;13.188;2023-07-08T01:39:34;101563.63;;;15.59;97.90
829;BME280;396;52.558;13.188;2023-07-08T01:42:01;101571.13;;;15.54;98.04
829;BME280;396;52.558;13.188;2023-07-08T01:44:30;101570.00;;;15.55;98.30
829;BME280;396;52.558;13.188;2023-07-08T01:47:01;101560.22;;;15.54;98.41
829;BME280;396;52.558;13.188;2023-07-08T01:49:29;101566.75;;;15.53;98.22
829;BME280;396;52.558;13.188;2023-07-08T01:51:57;101560.22;;;15.54;97.52
829;BME280;396;52.558;13.188;2023-07-08T01:54:23;101561.94;;;15.50;97.89
829;BME280;396;52.558;13.188;2023-07-08T01:56:55;101564.16;;;15.48;98.00
829;BME280;396;52.558;13.188;2023-07-08T01:59:23;101560.94;;;15.46;97.89
829;BME280;396;52.558;13.188;2023-07-08T02:01:50;101563.03;;;15.49;97.79
829;BME280;396;52.558;13.188;2023-07-08T02:04:19;101567.50;;;15.45;97.73
829;BME280;396;52.558;13.188;2023-07-08T02:06:51;101565.09;;;15.43;97.33
829;BME280;396;52.558;13.188;2023-07-08T02:09:18;101564.53;;;15.32;98.54
829;BME280;396;52.558;13.188;2023-07-08T02:11:45;101566.47;;;15.32;98.00
829;BME280;396;52.558;13.188;2023-07-08T02:14:13;101572.91;;;15.36;97.63
829;BME280;396;52.558;13.188;2023-07-08T02:16:39;101569.00;;;15.28;97.91
829;BME280;396;52.558;13.188;2023-07-08T02:19:06;101569.81;;;15.29;97.93
829;BME280;396;52.558;13.188;2023-07-08T02:21:32;101563.66;;;15.23;98.34
829;BME280;396;52.558;13.188;2023-07-08T02:24:00;101558.88;;;15.29;97.96
829;BME280;396;52.558;13.188;2023-07-08T02:26:27;101556.75;;;15.26;97.82
829;BME280;396;52.558;13.188;2023-07-08T02:28:54;101564.75;;;15.22;98.19
829;BME280;396;52.558;13.188;2023-07-08T02:31:22;101563.47;;;15.20;97.63
829;BME280;396;52.558;13.188;2023-07-08T02:33:50;101559.72;;;15.16;98.03
829;BME280;396;52.558;13.188;2023-07-08T02:36:16;101553.47;;;15.15;97.27
829;BME280;396;52.558;13.188;2023-07-08T02:38:43;101553.28;;;15.11;97.82
829;BME280;396;52.558;13.188;2023-07-08T02:41:10;101553.75;;;15.13;97.55
829;BME280;396;52.558;13.188;2023-07-08T02:43:37;101556.13;;;15.06;97.57
829;BME280;396;52.558;13.188;2023-07-08T02:46:04;101553.50;;;15.01;98.01
829;BME280;396;52.558;13.188;2023-07-08T02:48:31;101549.47;;;14.99;97.87
829;BME280;396;52.558;13.188;2023-07-08T02:50:59;101558.25;;;14.96;98.08
829;BME280;396;52.558;13.188;2023-07-08T02:53:26;101556.66;;;14.95;98.13
829;BME280;396;52.558;13.188;2023-07-08T02:55:52;101561.91;;;14.91;98.39
829;BME280;396;52.558;13.188;2023-07-08T02:58:19;101557.56;;;14.90;98.28
829;BME280;396;52.558;13.188;2023-07-08T03:00:51;101557.56;;;14.90;98.51
829;BME280;396;52.558;13.188;2023-07-08T03:03:18;101564.63;;;14.91;97.89
829;BME280;396;52.558;13.188;2023-07-08T03:05:53;101561.41;;;14.89;97.85
829;BME280;396;52.558;13.188;2023-07-08T03:08:20;101563.44;;;14.83;98.30
829;BME280;396;52.558;13.188;2023-07-08T03:10:47;101560.41;;;14.85;97.72
829;BME280;396;52.558;13.188;2023-07-08T03:13:14;101558.00;;;14.83;97.77
829;BME280;396;52.558;13.188;2023-07-08T03:15:44;101551.00;;;14.77;98.05
829;BME280;396;52.558;13.188;2023-07-08T03:18:11;101552.13;;;14.76;98.24
829;BME280;396;52.558;13.188;2023-07-08T03:20:39;101550.31;;;14.72;98.72
829;BME280;396;52.558;13.188;2023-07-08T03:23:07;101543.88;;;14.68;99.33
829;BME280;396;52.558;13.188;2023-07-08T03:25:35;101552.03;;;14.68;99.40
829;BME280;396;52.558;13.188;2023-07-08T03:28:02;101551.72;;;14.69;99.14
829;BME280;396;52.558;13.188;2023-07-08T03:30:31;101546.28;;;14.69;99.06
829;BME280;396;52.558;13.188;2023-07-08T03:32:58;101548.91;;;14.74;98.87
829;BME280;396;52.558;13.188;2023-07-08T03:35:25;101551.53;;;14.79;98.90
829;BME280;396;52.558;13.188;2023-07-08T03:37:51;101547.69;;;14.80;98.80
829;BME280;396;52.558;13.188;2023-07-08T03:40:20;101542.22;;;14.80;99.28
829;BME280;396;52.558;13.188;2023-07-08T03:42:46;101537.91;;;14.79;99.13
829;BME280;396;52.558;13.188;2023-07-08T03:45:13;101548.81;;;14.79;98.93
829;BME280;396;52.558;13.188;2023-07-08T03:47:40;101550.09;;;14.82;99.32
829;BME280;396;52.558;13.188;2023-07-08T03:50:13;101548.09;;;14.87;99.52
829;BME280;396;52.558;13.188;2023-07-08T03:52:43;101549.69;;;14.88;99.74
829;BME280;396;52.558;13.188;2023-07-08T03:55:11;101551.50;;;14.93;99.10
829;BME280;396;52.558;13.188;2023-07-08T03:57:39;101550.50;;;14.89;99.64
829;BME280;396;52.558;13.188;2023-07-08T04:00:07;101553.13;;;14.94;99.42
829;BME280;396;52.558;13.188;2023-07-08T04:02:37;101553.31;;;14.98;99.32
829;BME280;396;52.558;13.188;2023-07-08T04:05:04;101545.81;;;15.03;99.61
829;BME280;396;52.558;13.188;2023-07-08T04:07:31;101556.50;;;15.13;99.79
829;BME280;396;52.558;13.188;2023-07-08T04:09:58;101542.34;;;15.11;99.83
829;BME280;396;52.558;13.188;2023-07-08T04:12:25;101546.28;;;15.19;99.35
829;BME280;396;52.558;13.188;2023-07-08T04:14:53;101559.50;;;15.26;98.77
829;BME280;396;52.558;13.188;2023-07-08T04:17:20;101552.63;;;15.28;99.70
829;BME280;396;52.558;13.188;2023-07-08T04:19:48;101559.75;;;15.38;99.73
829;BME280;396;52.558;13.188;2023-07-08T04:22:15;101547.59;;;15.44;99.80
829;BME280;396;52.558;13.188;2023-07-08T04:24:42;101544.25;;;15.47;99.52
829;BME280;396;52.558;13.188;2023-07-08T04:27:12;101555.84;;;15.53;99.92
829;BME280;396;52.558;13.188;2023-07-08T04:29:43;101544.69;;;15.63;99.72
829;BME280;396;52.558;13.188;2023-07-08T04:32:11;101550.53;;;15.70;99.48
829;BME280;396;52.558;13.188;2023-07-08T04:34:38;101551.19;;;15.76;99.75
829;BME280;396;52.558;13.188;2023-07-08T04:37:04;101547.25;;;15.82;99.84
829;BME280;396;52.558;13.188;2023-07-08T04:39:31;101547.09;;;15.87;100.00
829;BME280;396;52.558;13.188;2023-07-08T04:41:58;101550.50;;;15.93;100.00
829;BME280;396;52.558;13.188;2023-07-08T04:44:24;101562.59;;;16.00;99.95
829;BME280;396;52.558;13.188;2023-07-08T04:46:54;101569.25;;;16.08;99.91
829;BME280;396;52.558;13.188;2023-07-08T04:49:24;101556.91;;;16.19;99.75
829;BME280;396;52.558;13.188;2023-07-08T04:51:56;101561.59;;;16.27;100.00
829;BME280;396;52.558;13.188;2023-07-08T04:54:23;101556.97;;;16.36;100.00
829;BME280;396;52.558;13.188;2023-07-08T04:56:50;101560.88;;;16.44;100.00
829;BME280;396;52.558;13.188;2023-07-08T04:59:20;101560.91;;;16.53;100.00
829;BME280;396;52.558;13.188;2023-07-08T05:01:47;101566.69;;;16.60;100.00
829;BME280;396;52.558;13.188;2023-07-08T05:04:15;101557.72;;;16.68;100.00
829;BME280;396;52.558;13.188;2023-07-08T05:06:44;101558.75;;;16.81;100.00
829;BME280;396;52.558;13.188;2023-07-08T05:09:11;101560.34;;;16.90;100.00
829;BME280;396;52.558;13.188;2023-07-08T05:11:37;101565.03;;;16.99;99.25
829;BME280;396;52.558;13.188;2023-07-08T05:14:04;101558.63;;;17.12;98.01
829;BME280;396;52.558;13.188;2023-07-08T05:16:33;101564.44;;;17.19;97.82
829;BME280;396;52.558;13.188;2023-07-08T05:19:00;101554.59;;;17.27;97.00
829;BME280;396;52.558;13.188;2023-07-08T05:21:29;101557.81;;;17.37;96.37
829;BME280;396;52.558;13.188;2023-07-08T05:23:59;101555.53;;;17.48;95.43
829;BME280;396;52.558;13.188;2023-07-08T05:26:26;101553.28;;;17.59;94.46
829;BME280;396;52.558;13.188;2023-07-08T05:28:53;101558.09;;;17.71;93.36
829;BME280;396;52.558;13.188;2023-07-08T05:31:19;101569.56;;;17.81;92.14
829;BME280;396;52.558;13.188;2023-07-08T05:33:46;101569.19;;;17.92;91.04
829;BME280;396;52.558;13.188;2023-07-08T05:36:13;101571.63;;;18.02;90.26
829;BME280;396;52.558;13.188;2023-07-08T05:38:39;101570.91;;;18.13;89.18
829;BME280;396;52.558;13.188;2023-07-08T05:41:07;101576.38;;;18.22;88.36
829;BME280;396;52.558;13.188;2023-07-08T05:43:34;101570.06;;;18.30;87.62
829;BME280;396;52.558;13.188;2023-07-08T05:46:01;101569.69;;;18.40;86.91
829;BME280;396;52.558;13.188;2023-07-08T05:48:28;101572.06;;;18.51;86.72
829;BME280;396;52.558;13.188;2023-07-08T05:50:55;101564.59;;;18.60;86.84
829;BME280;396;52.558;13.188;2023-07-08T05:53:22;101568.91;;;18.70;86.40
829;BME280;396;52.558;13.188;2023-07-08T05:55:50;101576.09;;;18.83;86.13
829;BME280;396;52.558;13.188;2023-07-08T05:58:18;101577.78;;;18.96;85.27
829;BME280;396;52.558;13.188;2023-07-08T06:00:44;101577.75;;;19.05;85.09
829;BME280;396;52.558;13.188;2023-07-08T06:03:11;101585.22;;;19.16;83.63
829;BME280;396;52.558;13.188;2023-07-08T06:05:38;101587.59;;;19.27;82.05
829;BME280;396;52.558;13.188;2023-07-08T06:08:06;101593.47;;;19.37;80.22
829;BME280;396;52.558;13.188;2023-07-08T06:10:33;101594.69;;;19.49;80.01
829;BME280;396;52.558;13.188;2023-07-08T06:12:59;101582.13;;;19.60;80.25
829;BME280;396;52.558;13.188;2023-07-08T06:15:27;101589.31;;;19.73;79.35
829;BME280;396;52.558;13.188;2023-07-08T06:17:54;101593.25;;;19.84;78.22
829;BME280;396;52.558;13.188;2023-07-08T06:20:20;101597.97;;;19.96;76.81
829;BME280;396;52.558;13.188;2023-07-08T06:22:47;101601.91;;;20.07;76.52
829;BME280;396;52.558;13.188;2023-07-08T06:25:14;101600.66;;;20.17;74.13
829;BME280;396;52.558;13.188;2023-07-08T06:27:40;101596.78;;;20.30;74.07
829;BME280;396;52.558;13.188;2023-07-08T06:30:08;101598.88;;;20.46;73.75
829;BME280;396;52.558;13.188;2023-07-08T06:32:36;101600.50;;;20.59;72.73
829;BME280;396;52.558;13.188;2023-07-08T06:35:03;101596.94;;;20.71;72.61
829;BME280;396;52.558;13.188;2023-07-08T06:37:30;101597.28;;;20.81;72.34
829;BME280;396;52.558;13.188;2023-07-08T06:39:57;101597.59;;;20.92;71.67
829;BME280;396;52.558;13.188;2023-07-08T06:42:23;101595.63;;;21.05;70.76
829;BME280;396;52.558;13.188;2023-07-08T06:44:50;101590.78;;;21.14;70.76
829;BME280;396;52.558;13.188;2023-07-08T06:47:17;101589.50;;;21.24;69.92
829;BME280;396;52.558;13.188;2023-07-08T06:49:46;101599.25;;;21.33;69.67
829;BME280;396;52.558;13.188;2023-07-08T06:52:13;101599.22;;;21.46;69.61
829;BME280;396;52.558;13.188;2023-07-08T06:54:40;101598.72;;;21.56;68.99
829;BME280;396;52.558;13.188;2023-07-08T06:57:07;101589.47;;;21.64;69.14
829;BME280;396;52.558;13.188;2023-07-08T06:59:34;101589.00;;;21.74;68.42
829;BME280;396;52.558;13.188;2023-07-08T07:02:01;101591.66;;;21.86;67.30
829;BME280;396;52.558;13.188;2023-07-08T07:04:27;101588.84;;;21.99;66.45
829;BME280;396;52.558;13.188;2023-07-08T07:06:57;101592.22;;;22.08;66.04
829;BME280;396;52.558;13.188;2023-07-08T07:09:24;101593.34;;;22.19;65.69
829;BME280;396;52.558;13.188;2023-07-08T07:11:50;101592.38;;;22.27;65.46
829;BME280;396;52.558;13.188;2023-07-08T07:14:17;101582.75;;;22.37;64.16
829;BME280;396;52.558;13.188;2023-07-08T07:16:43;101582.13;;;22.44;64.54
829;BME280;396;52.558;13.188;2023-07-08T07:19:10;101584.59;;;22.49;63.85
829;BME280;396;52.558;13.188;2023-07-08T07:21:37;101589.88;;;22.54;64.06
829;BME280;396;52.558;13.188;2023-07-08T07:24:05;101590.13;;;22.64;63.62
829;BME280;396;52.558;13.188;2023-07-08T07:26:32;101585.56;;;22.72;62.17
829;BME280;396;52.558;13.188;2023-07-08T07:28:59;101585.00;;;22.82;62.47
829;BME280;396;52.558;13.188;2023-07-08T07:31:27;101591.25;;;22.95;62.40
829;BME280;396;52.558;13.188;2023-07-08T07:33:53;101591.25;;;23.14;61.78
829;BME280;396;52.558;13.188;2023-07-08T07:36:20;101587.56;;;23.26;62.32
829;BME280;396;52.558;13.188;2023-07-08T07:38:46;101585.00;;;23.37;62.42
829;BME280;396;52.558;13.188;2023-07-08T07:41:14;101584.00;;;23.45;62.29
829;BME280;396;52.558;13.188;2023-07-08T07:43:41;101580.59;;;23.52;61.19
829;BME280;396;52.558;13.188;2023-07-08T07:46:08;101586.25;;;23.59;60.11
829;BME280;396;52.558;13.188;2023-07-08T07:48:36;101579.88;;;23.74;60.68
829;BME280;396;52.558;13.188;2023-07-08T07:51:03;101591.56;;;23.87;60.43
829;BME280;396;52.558;13.188;2023-07-08T07:53:30;101577.13;;;23.97;61.03
829;BME280;396;52.558;13.188;2023-07-08T07:55:58;101571.34;;;24.06;61.11
829;BME280;396;52.558;13.188;2023-07-08T07:58:26;101576.19;;;24.12;61.06
829;BME280;396;52.558;13.188;2023-07-08T08:00:53;101572.38;;;24.21;60.91
829;BME280;396;52.558;13.188;2023-07-08T08:03:20;101578.44;;;24.30;61.26
829;BME280;396;52.558;13.188;2023-07-08T08:05:47;101572.25;;;24.36;60.48
829;BME280;396;52.558;13.188;2023-07-08T08:08:14;101578.41;;;24.49;59.45
829;BME280;396;52.558;13.188;2023-07-08T08:10:42;101576.19;;;24.58;59.65
829;BME280;396;52.558;13.188;2023-07-08T08:13:09;101583.47;;;24.70;58.23
829;BME280;396;52.558;13.188;2023-07-08T08:15:38;101577.28;;;24.80;56.87
829;BME280;396;52.558;13.188;2023-07-08T08:18:04;101578.63;;;24.90;56.96
829;BME280;396;52.558;13.188;2023-07-08T08:20:31;101580.78;;;25.04;56.60
829;BME280;396;52.558;13.188;2023-07-08T08:22:58;101577.81;;;25.16;58.40
829;BME280;396;52.558;13.188;2023-07-08T08:25:24;101586.97;;;25.20;56.53
829;BME280;396;52.558;13.188;2023-07-08T08:27:51;101593.78;;;25.26;56.37
829;BME280;396;52.558;13.188;2023-07-08T08:30:18;101589.88;;;25.31;57.78
829;BME280;396;52.558;13.188;2023-07-08T08:32:46;101589.97;;;25.38;56.96
829;BME280;396;52.558;13.188;2023-07-08T08:35:12;101582.53;;;25.46;57.17
829;BME280;396;52.558;13.188;2023-07-08T08:37:39;101578.59;;;25.47;58.05
829;BME280;396;52.558;13.188;2023-07-08T08:40:11;101579.41;;;25.51;58.98
829;BME280;396;52.558;13.188;2023-07-08T08:42:41;101584.69;;;25.59;57.59
829;BME280;396;52.558;13.188;2023-07-08T08:45:11;101584.72;;;25.66;56.96
829;BME280;396;52.558;13.188;2023-07-08T08:47:42;101584.91;;;25.77;56.10
829;BME280;396;52.558;13.188;2023-07-08T08:50:24;101580.97;;;25.82;55.71
829;BME280;396;52.558;13.188;2023-07-08T08:52:52;101579.84;;;25.86;55.10
829;BME280;396;52.558;13.188;2023-07-08T08:55:21;101581.09;;;25.96;53.20
829;BME280;396;52.558;13.188;2023-07-08T08:57:53;101584.31;;;26.02;50.40
829;BME280;396;52.558;13.188;2023-07-08T09:00:28;101590.75;;;26.09;51.08
829;BME280;396;52.558;13.188;2023-07-08T09:03:01;101578.97;;;26.23;51.38
829;BME280;396;52.558;13.188;2023-07-08T09:05:30;101582.97;;;26.29;47.31
829;BME280;396;52.558;13.188;2023-07-08T09:08:04;101587.00;;;26.35;44.39
829;BME280;396;52.558;13.188;2023-07-08T09:10:42;101580.78;;;26.49;45.89
829;BME280;396;52.558;13.188;2023-07-08T09:13:16;101580.09;;;26.63;45.12
829;BME280;396;52.558;13.188;2023-07-08T09:15:46;101585.31;;;26.72;42.32
829;BME280;396;52.558;13.188;2023-07-08T09:18:18;101581.41;;;26.83;41.17
829;BME280;396;52.558;13.188;2023-07-08T09:20:48;101577.47;;;26.91;40.72
829;BME280;396;52.558;13.188;2023-07-08T09:23:20;101576.34;;;26.96;41.10
829;BME280;396;52.558;13.188;2023-07-08T09:25:52;101587.50;;;27.07;39.59
829;BME280;396;52.558;13.188;2023-07-08T09:28:19;101587.06;;;27.05;38.52
829;BME280;396;52.558;13.188;2023-07-08T09:30:48;101589.16;;;27.15;39.31
829;BME280;396;52.558;13.188;2023-07-08T09:33:15;101586.03;;;27.24;39.13
829;BME280;396;52.558;13.188;2023-07-08T09:35:44;101586.81;;;27.31;39.10
829;BME280;396;52.558;13.188;2023-07-08T09:38:16;101578.91;;;27.37;38.58
829;BME280;396;52.558;13.188;2023-07-08T09:40:47;101580.13;;;27.47;38.73
829;BME280;396;52.558;13.188;2023-07-08T09:43:20;101582.94;;;27.54;38.56
829;BME280;396;52.558;13.188;2023-07-08T09:45:50;101582.16;;;27.57;36.53
829;BME280;396;52.558;13.188;2023-07-08T09:48:20;101577.00;;;27.59;37.66
829;BME280;396;52.558;13.188;2023-07-08T09:50:48;101578.22;;;27.69;38.93
829;BME280;396;52.558;13.188;2023-07-08T09:53:16;101578.66;;;27.78;39.04
829;BME280;396;52.558;13.188;2023-07-08T09:55:43;101579.84;;;27.87;38.59
829;BME280;396;52.558;13.188;2023-07-08T09:58:15;101581.88;;;27.94;38.61
829;BME280;396;52.558;13.188;2023-07-08T10:00:51;101586.25;;;27.99;37.45
829;BME280;396;52.558;13.188;2023-07-08T10:03:22;101579.09;;;28.05;38.23
829;BME280;396;52.558;13.188;2023-07-08T10:05:49;101582.66;;;28.09;37.86
829;BME280;396;52.558;13.188;2023-07-08T10:08:21;101586.66;;;28.22;37.09
829;BME280;396;52.558;13.188;2023-07-08T10:10:51;101583.06;;;28.32;36.91
829;BME280;396;52.558;13.188;2023-07-08T10:13:24;101590.25;;;28.37;35.50
829;BME280;396;52.558;13.188;2023-07-08T10:15:56;101587.09;;;28.38;34.74
829;BME280;396;52.558;13.188;2023-07-08T10:18:25;101578.69;;;28.46;35.53
829;BME280;396;52.558;13.188;2023-07-08T10:20:59;101583.06;;;28.54;36.64
829;BME280;396;52.558;13.188;2023-07-08T10:23:40;101583.88;;;28.61;35.85
829;BME280;396;52.558;13.188;2023-07-08T10:26:14;101579.03;;;28.76;36.11
829;BME280;396;52.558;13.188;2023-07-08T10:28:47;101587.81;;;28.78;33.19
829;BME280;396;52.558;13.188;2023-07-08T10:31:27;101582.22;;;28.89;33.32
829;BME280;396;52.558;13.188;2023-07-08T10:34:07;101579.78;;;28.95;34.64
829;BME280;396;52.558;13.188;2023-07-08T10:36:43;101579.81;;;28.98;35.33
829;BME280;396;52.558;13.188;2023-07-08T10:39:23;101584.59;;;29.05;34.97
829;BME280;396;52.558;13.188;2023-07-08T10:42:03;101574.16;;;29.16;35.76
829;BME280;396;52.558;13.188;2023-07-08T10:44:38;101574.94;;;29.20;32.35
829;BME280;396;52.558;13.188;2023-07-08T10:47:18;101579.31;;;29.28;34.32
829;BME280;396;52.558;13.188;2023-07-08T10:49:57;101578.06;;;29.36;33.59
829;BME280;396;52.558;13.188;2023-07-08T10:52:38;101580.44;;;29.38;32.38
829;BME280;396;52.558;13.188;2023-07-08T10:55:16;101578.78;;;29.55;33.43
829;BME280;396;52.558;13.188;2023-07-08T10:58:01;101570.81;;;29.53;32.60
829;BME280;396;52.558;13.188;2023-07-08T11:00:37;101578.78;;;29.62;32.66
829;BME280;396;52.558;13.188;2023-07-08T11:03:26;101571.53;;;29.72;32.28
829;BME280;396;52.558;13.188;2023-07-08T11:06:00;101572.31;;;29.76;32.32
829;BME280;396;52.558;13.188;2023-07-08T11:08:32;101565.41;;;29.91;32.40
829;BME280;396;52.558;13.188;2023-07-08T11:11:06;101563.28;;;30.06;29.87
829;BME280;396;52.558;13.188;2023-07-08T11:13:42;101563.16;;;30.24;31.54
829;BME280;396;52.558;13.188;2023-07-08T11:16:16;101571.00;;;30.39;34.47
829;BME280;396;52.558;13.188;2023-07-08T11:18:50;101565.22;;;30.57;31.82
829;BME280;396;52.558;13.188;2023-07-08T11:21:22;101570.56;;;30.86;32.45
829;BME280;396;52.558;13.188;2023-07-08T11:23:54;101574.81;;;31.32;31.81
829;BME280;396;52.558;13.188;2023-07-08T11:26:27;101561.91;;;31.96;33.71
829;BME280;396;52.558;13.188;2023-07-08T11:28:58;101566.34;;;32.63;32.99
829;BME280;396;52.558;13.188;2023-07-08T11:31:28;101562.69;;;33.26;30.66
829;BME280;396;52.558;13.188;2023-07-08T11:33:57;101558.25;;;33.65;28.28
829;BME280;396;52.558;13.188;2023-07-08T11:36:25;101559.78;;;34.02;27.19
829;BME280;396;52.558;13.188;2023-07-08T11:38:54;101551.66;;;33.88;27.01
829;BME280;396;52.558;13.188;2023-07-08T11:41:25;101560.09;;;34.37;28.80
829;BME280;396;52.558;13.188;2023-07-08T11:43:57;101553.91;;;34.58;28.32
829;BME280;396;52.558;13.188;2023-07-08T11:46:26;101553.91;;;34.58;27.00
829;BME280;396;52.558;13.188;2023-07-08T11:48:55;101553.75;;;34.78;27.55
829;BME280;396;52.558;13.188;2023-07-08T11:51:25;101558.25;;;35.18;28.02
829;BME280;396;52.558;13.188;2023-07-08T11:53:59;101551.22;;;35.51;26.10
829;BME280;396;52.558;13.188;2023-07-08T11:56:28;101551.44;;;35.70;27.65
829;BME280;396;52.558;13.188;2023-07-08T11:59:08;101550.59;;;35.95;26.47
829;BME280;396;52.558;13.188;2023-07-08T12:01:40;101546.13;;;36.32;27.51
829;BME280;396;52.558;13.188;2023-07-08T12:04:30;101539.59;;;36.35;26.69
829;BME280;396;52.558;13.188;2023-07-08T12:07:19;101542.84;;;36.33;24.11
829;BME280;396;52.558;13.188;2023-07-08T12:09:50;101542.13;;;36.42;25.22
829;BME280;396;52.558;13.188;2023-07-08T12:12:30;101535.28;;;36.65;25.24
829;BME280;396;52.558;13.188;2023-07-08T12:15:04;101537.91;;;36.81;27.65
829;BME280;396;52.558;13.188;2023-07-08T12:17:31;101538.44;;;37.11;25.33
829;BME280;396;52.558;13.188;2023-07-08T12:20:01;101547.28;;;37.53;25.20
829;BME280;396;52.558;13.188;2023-07-08T12:22:29;101547.69;;;37.83;24.77
829;BME280;396;52.558;13.188;2023-07-08T12:24:56;101545.69;;;37.93;24.42
829;BME280;396;52.558;13.188;2023-07-08T12:27:23;101543.19;;;38.13;24.69
829;BME280;396;52.558;13.188;2023-07-08T12:29:51;101537.09;;;38.33;26.30
829;BME280;396;52.558;13.188;2023-07-08T12:32:18;101536.78;;;38.49;24.37
829;BME280;396;52.558;13.188;2023-07-08T12:34:48;101537.38;;;38.17;24.76
829;BME280;396;52.558;13.188;2023-07-08T12:37:15;101526.53;;;38.15;24.90
829;BME280;396;52.558;13.188;2023-07-08T12:39:42;101529.19;;;38.19;25.10
829;BME280;396;52.558;13.188;2023-07-08T12:42:10;101523.72;;;38.33;24.69
829;BME280;396;52.558;13.188;2023-07-08T12:44:38;101528.59;;;38.42;25.00
829;BME280;396;52.558;13.188;2023-07-08T12:47:09;101525.94;;;38.39;23.10
829;BME280;396;52.558;13.188;2023-07-08T12:49:35;101530.19;;;38.52;25.10
829;BME280;396;52.558;13.188;2023-07-08T12:52:03;101526.06;;;38.63;23.00
829;BME280;396;52.558;13.188;2023-07-08T12:54:29;101528.72;;;38.84;23.65
829;BME280;396;52.558;13.188;2023-07-08T12:56:58;101528.09;;;38.80;24.52
829;BME280;396;52.558;13.188;2023-07-08T12:59:25;101532.00;;;39.01;24.36
829;BME280;396;52.558;13.188;2023-07-08T13:01:52;101520.34;;;38.99;23.30
829;BME280;396;52.558;13.188;2023-07-08T13:04:20;101521.84;;;39.28;25.04
829;BME280;396;52.558;13.188;2023-07-08T13:06:48;101512.72;;;39.57;23.97
829;BME280;396;52.558;13.188;2023-07-08T13:09:23;101523.84;;;39.70;22.66
829;BME280;396;52.558;13.188;2023-07-08T13:11:55;101511.38;;;39.43;23.15
829;BME280;396;52.558;13.188;2023-07-08T13:14:24;101513.97;;;39.56;25.00
829;BME280;396;52.558;13.188;2023-07-08T13:16:51;101507.44;;;39.74;23.50
829;BME280;396;52.558;13.188;2023-07-08T13:19:18;101512.03;;;39.62;23.31
829;BME280;396;52.558;13.188;2023-07-08T13:21:47;101507.19;;;39.63;23.74
829;BME280;396;52.558;13.188;2023-07-08T13:24:14;101507.69;;;39.52;23.07
829;BME280;396;52.558;13.188;2023-07-08T13:26:45;101509.09;;;39.56;23.52
829;BME280;396;52.558;13.188;2023-07-08T13:29:14;101507.53;;;39.55;23.20
829;BME280;396;52.558;13.188;2023-07-08T13:31:46;101497.97;;;39.44;24.34